Time;durP1;ratioP1;P1;durP2;ratioP2;P2;SDS_P1;SDS_P2;PMS_P1;PMS_P2;Temp;Humidity;BMP_temperature;BMP_pressure;BME280_temperature;BME280_humidity;BME280_pressure;Samples;Min_cycle;Max_cycle;Signal;HPM_P1;HPM_P2
2022/12/13 00:02:24;;;;;;;82.15;26.85;;;;;;;;;;4977952;28;20222;-57
2022/12/13 00:04:49;;;;;;;72.22;24.83;;;;;;;;;;4978095;28;20474;-56
2022/12/13 00:07:15;;;;;;;74.22;24.15;;;;;;;;;;4976808;28;20608;-57
2022/12/13 00:09:41;;;;;;;84.95;25.17;;;;;;;;;;4972867;28;20388;-56
2022/12/13 00:12:07;;;;;;;77.55;25.67;;;;;;;;;;4971715;28;20030;-55
2022/12/13 00:14:32;;;;;;;70.65;22.45;;;;;;;;;;4974985;28;20037;-56
2022/12/13 00:16:57;;;;;;;75.20;22.75;;;;;;;;;;4973887;28;20034;-56
2022/12/13 00:19:23;;;;;;;70.55;25.17;;;;;;;;;;4974676;28;20037;-55
2022/12/13 00:21:49;;;;;;;75.63;25.60;;;;;;;;;;4975660;28;20109;-58
2022/12/13 00:24:15;;;;;;;73.70;24.85;;;;;;;;;;4975386;28;20165;-56
2022/12/13 00:26:40;;;;;;;85.72;26.35;;;;;;;;;;4973294;28;20038;-55
2022/12/13 00:29:06;;;;;;;80.47;26.20;;;;;;;;;;4974668;28;20030;-57
2022/12/13 00:31:32;;;;;;;70.60;25.67;;;;;;;;;;4971276;28;20030;-56
2022/12/13 00:33:57;;;;;;;75.80;24.10;;;;;;;;;;4980663;28;20456;-57
2022/12/13 00:36:23;;;;;;;77.47;23.98;;;;;;;;;;4974244;28;20544;-56
2022/12/13 00:38:59;;;;;;;89.95;24.85;;;;;;;;;;4975672;28;20094;-56
2022/12/13 00:41:24;;;;;;;85.43;25.77;;;;;;;;;;4974461;28;20559;-57
2022/12/13 00:43:50;;;;;;;89.32;25.02;;;;;;;;;;4979744;28;20039;-56
2022/12/13 00:46:17;;;;;;;78.43;24.83;;;;;;;;;;4978199;28;20507;-56
2022/12/13 00:48:42;;;;;;;95.18;26.70;;;;;;;;;;4974916;28;20225;-57
2022/12/13 00:51:08;;;;;;;106.88;34.33;;;;;;;;;;4978626;28;20037;-56
2022/12/13 00:53:33;;;;;;;114.15;29.42;;;;;;;;;;4979556;28;20109;-55
2022/12/13 00:55:58;;;;;;;101.63;27.45;;;;;;;;;;4979178;28;20109;-56
2022/12/13 00:58:23;;;;;;;112.65;24.58;;;;;;;;;;4978937;28;20343;-56
2022/12/13 01:00:49;;;;;;;109.70;27.20;;;;;;;;;;4973391;28;20054;-56
2022/12/13 01:03:24;;;;;;;104.50;25.05;;;;;;;;;;4974821;28;20057;-56
2022/12/13 01:05:49;;;;;;;150.20;29.10;;;;;;;;;;4978080;28;20472;-56
2022/12/13 01:08:15;;;;;;;94.43;25.55;;;;;;;;;;4976132;28;20022;-56
2022/12/13 01:10:43;;;;;;;106.38;28.73;;;;;;;;;;4976887;28;20018;-56
2022/12/13 01:13:09;;;;;;;112.63;24.95;;;;;;;;;;4975113;28;20018;-56
2022/12/13 01:15:34;;;;;;;102.72;25.95;;;;;;;;;;4979315;28;20225;-56
2022/12/13 01:17:59;;;;;;;152.43;28.90;;;;;;;;;;4980881;28;20030;-56
2022/12/13 01:20:24;;;;;;;153.23;28.42;;;;;;;;;;4980473;28;20089;-56
2022/12/13 01:22:50;;;;;;;91.60;27.40;;;;;;;;;;4974570;28;20050;-56
2022/12/13 01:25:15;;;;;;;142.82;27.25;;;;;;;;;;4978762;28;20487;-55
2022/12/13 01:27:40;;;;;;;140.95;28.63;;;;;;;;;;4970270;28;20093;-56
2022/12/13 01:30:06;;;;;;;122.28;30.63;;;;;;;;;;4977121;28;20464;-56
2022/12/13 01:32:31;;;;;;;109.65;30.00;;;;;;;;;;4969820;28;20026;-57
2022/12/13 01:34:59;;;;;;;117.53;29.45;;;;;;;;;;4976885;28;20030;-55
2022/12/13 01:37:24;;;;;;;131.18;34.80;;;;;;;;;;4974878;28;20469;-56
2022/12/13 01:39:50;;;;;;;128.00;29.77;;;;;;;;;;4971185;28;20042;-57
2022/12/13 01:42:15;;;;;;;127.63;29.58;;;;;;;;;;4974824;28;20256;-54
2022/12/13 01:44:59;;;;;;;127.63;31.75;;;;;;;;;;4973655;28;20038;-54
2022/12/13 01:47:32;;;;;;;119.97;29.17;;;;;;;;;;4976193;28;20380;-55
2022/12/13 01:49:58;;;;;;;167.88;33.90;;;;;;;;;;4957190;28;20400;-55
2022/12/13 01:52:24;;;;;;;173.25;30.00;;;;;;;;;;4972309;28;20035;-56
2022/12/13 01:54:49;;;;;;;131.80;27.30;;;;;;;;;;4953965;28;20035;-56
2022/12/13 01:57:15;;;;;;;156.20;32.00;;;;;;;;;;4968847;28;21544;-54
2022/12/13 01:59:41;;;;;;;120.13;30.67;;;;;;;;;;4975679;28;20367;-57
2022/12/13 02:02:06;;;;;;;111.50;31.80;;;;;;;;;;4953157;28;20069;-55
2022/12/13 02:04:44;;;;;;;111.20;29.25;;;;;;;;;;4961772;28;20405;-57
2022/12/13 02:07:09;;;;;;;138.35;30.92;;;;;;;;;;4972685;28;20027;-57
2022/12/13 02:09:34;;;;;;;127.80;30.60;;;;;;;;;;4950574;28;20033;-55
2022/12/13 02:11:59;;;;;;;114.30;28.73;;;;;;;;;;4971656;28;20114;-56
2022/12/13 02:14:25;;;;;;;100.97;30.35;;;;;;;;;;4974947;28;20133;-55
2022/12/13 02:16:51;;;;;;;121.93;32.20;;;;;;;;;;4973718;28;20396;-56
2022/12/13 02:19:17;;;;;;;128.50;32.65;;;;;;;;;;4975788;28;20038;-56
2022/12/13 02:21:45;;;;;;;109.45;29.42;;;;;;;;;;4979010;28;20085;-56
2022/12/13 02:24:10;;;;;;;112.45;32.63;;;;;;;;;;4975599;28;20050;-55
2022/12/13 02:26:35;;;;;;;130.10;31.73;;;;;;;;;;4974714;28;20030;-57
2022/12/13 02:29:16;;;;;;;119.57;32.08;;;;;;;;;;4975275;28;20026;-56
2022/12/13 02:31:41;;;;;;;105.18;29.50;;;;;;;;;;4969994;28;20548;-56
2022/12/13 02:34:12;;;;;;;104.05;26.33;;;;;;;;;;4974776;28;21525;-57
2022/12/13 02:36:37;;;;;;;123.35;30.33;;;;;;;;;;4976991;28;20031;-55
2022/12/13 02:39:18;;;;;;;123.50;29.40;;;;;;;;;;4973814;28;20043;-56
2022/12/13 02:41:53;;;;;;;98.75;30.20;;;;;;;;;;4971782;28;20042;-57
2022/12/13 02:44:18;;;;;;;135.05;32.58;;;;;;;;;;4974383;28;20053;-55
2022/12/13 02:46:51;;;;;;;115.30;30.77;;;;;;;;;;4977018;28;20568;-57
2022/12/13 02:49:16;;;;;;;118.53;29.30;;;;;;;;;;4954949;28;20034;-56
2022/12/13 02:51:41;;;;;;;118.47;31.50;;;;;;;;;;4956783;28;20030;-54
2022/12/13 02:54:07;;;;;;;108.93;29.13;;;;;;;;;;4956865;28;20376;-56
2022/12/13 02:56:32;;;;;;;98.90;28.90;;;;;;;;;;4975163;28;20354;-56
2022/12/13 02:58:58;;;;;;;97.07;29.25;;;;;;;;;;4972962;28;20034;-57
2022/12/13 03:01:35;;;;;;;109.20;28.80;;;;;;;;;;4974672;28;20049;-56
2022/12/13 03:04:00;;;;;;;104.40;29.08;;;;;;;;;;4974160;28;20026;-57
2022/12/13 03:06:29;;;;;;;116.25;30.83;;;;;;;;;;4975593;28;20023;-56
2022/12/13 03:09:06;;;;;;;119.18;32.53;;;;;;;;;;4966128;28;20019;-55
2022/12/13 03:14:19;;;;;;;117.07;33.35;;;;;;;;;;4962729;28;20150;-56
2022/12/13 03:16:45;;;;;;;126.80;34.33;;;;;;;;;;4968446;28;20051;-56
2022/12/13 03:19:10;;;;;;;104.32;31.60;;;;;;;;;;4962886;28;20484;-56
2022/12/13 03:21:39;;;;;;;119.13;29.58;;;;;;;;;;4981289;28;20030;-56
2022/12/13 03:24:04;;;;;;;104.22;29.50;;;;;;;;;;4962689;28;20133;-56
2022/12/13 03:26:29;;;;;;;112.68;31.25;;;;;;;;;;4962115;28;20105;-54
2022/12/13 03:28:55;;;;;;;108.60;29.27;;;;;;;;;;4974231;28;20387;-56
2022/12/13 03:31:20;;;;;;;107.63;30.75;;;;;;;;;;4977355;28;20033;-56
2022/12/13 03:33:45;;;;;;;104.38;30.33;;;;;;;;;;4976436;28;20058;-57
2022/12/13 03:36:11;;;;;;;105.40;30.33;;;;;;;;;;4962186;28;20023;-58
2022/12/13 03:38:38;;;;;;;100.60;29.13;;;;;;;;;;4973703;28;20398;-56
2022/12/13 03:41:08;;;;;;;96.32;28.90;;;;;;;;;;4961597;28;20026;-57
2022/12/13 03:43:34;;;;;;;93.55;27.48;;;;;;;;;;4961099;28;20396;-56
2022/12/13 03:46:00;;;;;;;119.93;30.80;;;;;;;;;;4978088;28;20033;-57
2022/12/13 03:48:25;;;;;;;105.13;29.15;;;;;;;;;;4965995;28;20471;-56
2022/12/13 03:50:50;;;;;;;108.47;31.10;;;;;;;;;;4979668;28;20022;-56
2022/12/13 03:53:16;;;;;;;119.38;30.42;;;;;;;;;;4975843;28;20040;-56
2022/12/13 03:55:41;;;;;;;112.10;30.88;;;;;;;;;;4981145;28;20031;-56
2022/12/13 03:58:06;;;;;;;105.32;29.60;;;;;;;;;;4978086;28;20274;-56
2022/12/13 04:00:32;;;;;;;111.30;29.85;;;;;;;;;;4977525;28;20035;-56
2022/12/13 04:02:57;;;;;;;94.35;27.98;;;;;;;;;;4975017;28;20052;-57
2022/12/13 04:05:22;;;;;;;116.07;31.23;;;;;;;;;;4976925;28;20026;-55
2022/12/13 04:07:47;;;;;;;113.93;31.88;;;;;;;;;;4977523;28;20027;-55
2022/12/13 04:10:13;;;;;;;115.82;29.33;;;;;;;;;;4976510;28;20320;-55
2022/12/13 04:15:22;;;;;;;97.20;29.17;;;;;;;;;;4972520;28;20038;-56
2022/12/13 04:17:47;;;;;;;127.72;32.15;;;;;;;;;;4979219;28;20404;-57
2022/12/13 04:20:12;;;;;;;115.28;31.55;;;;;;;;;;4978200;28;20022;-55
2022/12/13 04:22:38;;;;;;;114.28;31.80;;;;;;;;;;4962850;28;20616;-56
2022/12/13 04:25:03;;;;;;;101.05;26.85;;;;;;;;;;4980974;28;20027;-56
2022/12/13 04:27:28;;;;;;;111.88;30.30;;;;;;;;;;4953568;28;20398;-56
2022/12/13 04:29:54;;;;;;;95.82;28.05;;;;;;;;;;4975687;28;20027;-55
2022/12/13 04:32:19;;;;;;;121.20;32.35;;;;;;;;;;4980760;28;20331;-56
2022/12/13 04:34:44;;;;;;;115.80;31.15;;;;;;;;;;4978033;28;20538;-55
2022/12/13 04:37:10;;;;;;;104.70;30.95;;;;;;;;;;4981686;28;20462;-56
2022/12/13 04:39:35;;;;;;;130.13;31.25;;;;;;;;;;4977249;28;20027;-56
2022/12/13 04:42:00;;;;;;;110.70;29.42;;;;;;;;;;4975091;28;20015;-56
2022/12/13 04:44:25;;;;;;;100.55;29.73;;;;;;;;;;4979946;28;20037;-55
2022/12/13 04:46:51;;;;;;;111.43;30.85;;;;;;;;;;4976198;28;20022;-56
2022/12/13 04:49:17;;;;;;;117.85;31.17;;;;;;;;;;4975805;28;20018;-55
2022/12/13 04:51:42;;;;;;;132.75;33.72;;;;;;;;;;4949738;28;20034;-55
2022/12/13 04:54:07;;;;;;;121.25;31.85;;;;;;;;;;4982141;28;20030;-56
2022/12/13 04:56:33;;;;;;;153.88;37.70;;;;;;;;;;4960744;28;20495;-56
2022/12/13 04:58:58;;;;;;;137.25;35.72;;;;;;;;;;4981128;28;20093;-57
2022/12/13 05:01:23;;;;;;;136.18;34.83;;;;;;;;;;4983305;28;20022;-56
2022/12/13 05:03:48;;;;;;;151.70;36.25;;;;;;;;;;4983226;28;20022;-57
2022/12/13 05:06:14;;;;;;;136.82;34.42;;;;;;;;;;4979237;28;20045;-59
2022/12/13 05:08:39;;;;;;;128.65;34.92;;;;;;;;;;4979582;28;20022;-57
2022/12/13 05:11:04;;;;;;;121.90;34.17;;;;;;;;;;4977299;28;20038;-56
2022/12/13 05:13:30;;;;;;;143.70;38.47;;;;;;;;;;4971595;28;20192;-56
2022/12/13 05:15:59;;;;;;;137.32;35.85;;;;;;;;;;4974791;28;20026;-57
2022/12/13 05:18:24;;;;;;;127.90;34.38;;;;;;;;;;4973096;28;20030;-57
2022/12/13 05:20:50;;;;;;;136.02;36.97;;;;;;;;;;4955262;28;20043;-57
2022/12/13 05:23:15;;;;;;;145.40;37.55;;;;;;;;;;4975548;28;20042;-54
2022/12/13 05:25:41;;;;;;;132.98;34.50;;;;;;;;;;4976965;28;20023;-55
2022/12/13 05:28:06;;;;;;;137.45;32.85;;;;;;;;;;4971948;28;20081;-55
2022/12/13 05:30:31;;;;;;;149.93;37.28;;;;;;;;;;4977739;28;20082;-55
2022/12/13 05:32:56;;;;;;;133.40;34.28;;;;;;;;;;4967812;28;20085;-55
2022/12/13 05:35:22;;;;;;;136.93;35.92;;;;;;;;;;4975362;28;20061;-55
2022/12/13 05:37:47;;;;;;;147.02;38.30;;;;;;;;;;4964419;28;20034;-57
2022/12/13 05:40:12;;;;;;;140.20;37.05;;;;;;;;;;4976804;28;20152;-57
2022/12/13 05:42:39;;;;;;;118.63;35.70;;;;;;;;;;4977566;28;20485;-57
2022/12/13 05:45:07;;;;;;;137.45;33.65;;;;;;;;;;4971466;28;20073;-56
2022/12/13 05:47:32;;;;;;;140.52;37.08;;;;;;;;;;4957090;28;20053;-56
2022/12/13 05:49:58;;;;;;;125.45;33.17;;;;;;;;;;4973929;28;20373;-57
2022/12/13 05:52:23;;;;;;;129.82;36.50;;;;;;;;;;4978844;28;20406;-57
2022/12/13 05:54:52;;;;;;;132.70;35.65;;;;;;;;;;4962283;28;20421;-57
2022/12/13 05:57:18;;;;;;;108.70;33.97;;;;;;;;;;4969878;28;20041;-56
2022/12/13 05:59:43;;;;;;;141.07;33.47;;;;;;;;;;4968106;28;20034;-57
2022/12/13 06:02:08;;;;;;;149.90;38.95;;;;;;;;;;4973825;28;20403;-57
2022/12/13 06:04:33;;;;;;;141.50;37.72;;;;;;;;;;4975274;28;20458;-56
2022/12/13 06:06:58;;;;;;;128.20;36.25;;;;;;;;;;4954344;28;20045;-57
2022/12/13 06:09:24;;;;;;;129.05;36.25;;;;;;;;;;4970960;28;20378;-57
2022/12/13 06:11:49;;;;;;;117.10;33.90;;;;;;;;;;4974346;28;20035;-57
2022/12/13 06:14:14;;;;;;;121.53;32.60;;;;;;;;;;4977174;28;20022;-56
2022/12/13 06:16:40;;;;;;;123.32;36.38;;;;;;;;;;4981803;28;20030;-57
2022/12/13 06:19:05;;;;;;;117.72;35.22;;;;;;;;;;4976668;28;20054;-56
2022/12/13 06:21:31;;;;;;;122.25;35.10;;;;;;;;;;4975233;28;20329;-56
2022/12/13 06:23:56;;;;;;;102.38;32.75;;;;;;;;;;4974450;28;20053;-56
2022/12/13 06:26:21;;;;;;;123.50;35.08;;;;;;;;;;4971643;28;20424;-56
2022/12/13 06:28:47;;;;;;;123.05;33.55;;;;;;;;;;4970472;28;20088;-56
2022/12/13 06:31:13;;;;;;;104.18;33.60;;;;;;;;;;4972531;28;20031;-53
2022/12/13 06:33:38;;;;;;;127.40;37.28;;;;;;;;;;4974753;28;20395;-55
2022/12/13 06:36:04;;;;;;;124.65;34.17;;;;;;;;;;4976770;28;20034;-56
2022/12/13 06:38:30;;;;;;;107.15;31.50;;;;;;;;;;4973430;28;20093;-56
2022/12/13 06:41:04;;;;;;;101.78;29.65;;;;;;;;;;4960272;28;20077;-55
2022/12/13 06:43:29;;;;;;;116.55;27.95;;;;;;;;;;4966557;28;20030;-55
2022/12/13 06:45:54;;;;;;;106.25;30.58;;;;;;;;;;4978833;28;20014;-55
2022/12/13 06:48:19;;;;;;;113.95;34.22;;;;;;;;;;4981315;28;20034;-55
2022/12/13 06:50:45;;;;;;;131.68;35.03;;;;;;;;;;4976131;28;20037;-55
2022/12/13 06:53:10;;;;;;;131.90;36.63;;;;;;;;;;4963744;28;20065;-55
2022/12/13 06:55:35;;;;;;;130.00;36.63;;;;;;;;;;4985592;28;20118;-56
2022/12/13 06:58:00;;;;;;;124.43;35.08;;;;;;;;;;4984214;28;20117;-56
2022/12/13 07:00:26;;;;;;;102.57;28.95;;;;;;;;;;4977000;28;20088;-54
2022/12/13 07:02:52;;;;;;;108.10;31.00;;;;;;;;;;4973521;28;20034;-55
2022/12/13 07:05:17;;;;;;;128.30;36.72;;;;;;;;;;4976264;28;20254;-56
2022/12/13 07:07:43;;;;;;;125.22;37.22;;;;;;;;;;4978602;28;20509;-55
2022/12/13 07:10:08;;;;;;;108.30;31.73;;;;;;;;;;4972194;28;20035;-54
2022/12/13 07:12:34;;;;;;;122.53;33.38;;;;;;;;;;4978184;28;20050;-56
2022/12/13 07:14:59;;;;;;;120.15;37.55;;;;;;;;;;4978480;28;20030;-56
2022/12/13 07:17:24;;;;;;;105.53;31.85;;;;;;;;;;4982717;28;20033;-55
2022/12/13 07:19:49;;;;;;;99.40;30.70;;;;;;;;;;4971534;28;20039;-55
2022/12/13 07:22:15;;;;;;;123.43;37.17;;;;;;;;;;4976835;28;20031;-55
2022/12/13 07:24:40;;;;;;;85.93;29.05;;;;;;;;;;4980983;28;20050;-55
2022/12/13 07:27:05;;;;;;;98.97;29.75;;;;;;;;;;4973935;28;20034;-56
2022/12/13 07:29:30;;;;;;;103.90;31.77;;;;;;;;;;4980901;28;20098;-55
2022/12/13 07:31:56;;;;;;;97.18;33.00;;;;;;;;;;4975882;28;20030;-56
2022/12/13 07:34:21;;;;;;;103.35;30.50;;;;;;;;;;4979588;28;20030;-55
2022/12/13 07:36:48;;;;;;;109.85;34.92;;;;;;;;;;4979789;28;20440;-55
2022/12/13 07:39:13;;;;;;;93.18;29.85;;;;;;;;;;4976931;28;20047;-56
2022/12/13 07:41:38;;;;;;;102.85;30.05;;;;;;;;;;4975167;28;20485;-55
2022/12/13 07:44:03;;;;;;;85.18;29.90;;;;;;;;;;4985333;28;20377;-57
2022/12/13 07:46:29;;;;;;;93.85;30.88;;;;;;;;;;4980008;28;20100;-56
2022/12/13 07:48:54;;;;;;;67.85;24.65;;;;;;;;;;4976658;28;20026;-60
2022/12/13 07:51:20;;;;;;;75.63;28.42;;;;;;;;;;4976785;28;20117;-56
2022/12/13 07:53:45;;;;;;;98.07;29.65;;;;;;;;;;4974795;28;20034;-56
2022/12/13 07:56:10;;;;;;;77.40;25.73;;;;;;;;;;4979826;28;20026;-56
2022/12/13 07:58:35;;;;;;;79.63;24.98;;;;;;;;;;4966832;28;20094;-55
2022/12/13 08:01:07;;;;;;;63.97;23.77;;;;;;;;;;4977102;28;20027;-55
2022/12/13 08:03:32;;;;;;;66.15;23.48;;;;;;;;;;4976481;28;20098;-56
2022/12/13 08:05:58;;;;;;;76.15;26.67;;;;;;;;;;4978234;28;20492;-56
2022/12/13 08:08:24;;;;;;;65.72;23.67;;;;;;;;;;4973530;28;20042;-55
2022/12/13 08:10:49;;;;;;;94.53;27.63;;;;;;;;;;4978611;28;20610;-57
2022/12/13 08:13:14;;;;;;;71.18;25.30;;;;;;;;;;4960512;28;20427;-56
2022/12/13 08:15:39;;;;;;;67.40;23.83;;;;;;;;;;4975419;28;20041;-56
2022/12/13 08:18:05;;;;;;;82.55;26.20;;;;;;;;;;4970559;28;20047;-56
2022/12/13 08:20:30;;;;;;;64.78;25.23;;;;;;;;;;4975865;28;20030;-57
2022/12/13 08:22:56;;;;;;;79.40;26.50;;;;;;;;;;4974814;28;20101;-56
2022/12/13 08:25:21;;;;;;;76.47;23.73;;;;;;;;;;4979209;28;20485;-56
2022/12/13 08:27:46;;;;;;;84.72;26.98;;;;;;;;;;4976661;28;20102;-56
2022/12/13 08:30:12;;;;;;;82.95;28.05;;;;;;;;;;4975089;28;20050;-57
2022/12/13 08:32:37;;;;;;;80.82;24.45;;;;;;;;;;4979307;28;20341;-56
2022/12/13 08:35:02;;;;;;;97.57;29.92;;;;;;;;;;4975881;28;20026;-57
2022/12/13 08:37:27;;;;;;;83.57;28.38;;;;;;;;;;4967629;28;20018;-57
2022/12/13 08:39:53;;;;;;;89.38;29.02;;;;;;;;;;4976701;28;20117;-58
2022/12/13 08:42:18;;;;;;;90.43;29.63;;;;;;;;;;4975766;28;20029;-57
2022/12/13 08:44:46;;;;;;;80.57;27.58;;;;;;;;;;4980364;28;20417;-55
2022/12/13 08:47:12;;;;;;;91.13;28.67;;;;;;;;;;4981158;28;20380;-56
2022/12/13 08:49:37;;;;;;;82.82;27.13;;;;;;;;;;4972837;28;20056;-58
2022/12/13 08:52:02;;;;;;;72.85;25.13;;;;;;;;;;4972219;28;20030;-57
2022/12/13 08:54:28;;;;;;;80.93;27.63;;;;;;;;;;4971854;28;20457;-55
2022/12/13 08:56:53;;;;;;;84.63;26.48;;;;;;;;;;4978793;28;20054;-56
2022/12/13 08:59:19;;;;;;;94.53;25.48;;;;;;;;;;4976757;28;20042;-56
2022/12/13 09:01:44;;;;;;;70.45;24.00;;;;;;;;;;4973255;28;20524;-53
2022/12/13 09:04:09;;;;;;;94.72;27.90;;;;;;;;;;4980211;28;20051;-56
2022/12/13 09:06:34;;;;;;;102.43;28.33;;;;;;;;;;4970652;28;20034;-56
2022/12/13 09:09:00;;;;;;;83.00;27.80;;;;;;;;;;4975696;28;20129;-54
2022/12/13 09:11:25;;;;;;;86.30;27.08;;;;;;;;;;4975057;28;20340;-54
2022/12/13 09:13:50;;;;;;;62.90;21.55;;;;;;;;;;4973064;28;20026;-53
2022/12/13 09:16:18;;;;;;;106.60;31.90;;;;;;;;;;4980700;28;20030;-51
2022/12/13 09:18:43;;;;;;;89.15;26.88;;;;;;;;;;4976863;28;20045;-52
2022/12/13 09:21:09;;;;;;;101.43;29.27;;;;;;;;;;4976819;28;20023;-54
2022/12/13 09:23:34;;;;;;;103.13;29.42;;;;;;;;;;4978795;28;20061;-53
2022/12/13 09:26:00;;;;;;;106.07;29.27;;;;;;;;;;4964459;28;20062;-54
2022/12/13 09:28:28;;;;;;;117.35;33.72;;;;;;;;;;4973736;28;20409;-54
2022/12/13 09:30:54;;;;;;;114.68;33.08;;;;;;;;;;4977174;28;20128;-53
2022/12/13 09:33:19;;;;;;;78.70;24.73;;;;;;;;;;4977237;28;20460;-54
2022/12/13 09:35:44;;;;;;;71.95;25.52;;;;;;;;;;4977284;28;20034;-54
2022/12/13 09:38:10;;;;;;;76.60;26.10;;;;;;;;;;4979462;28;20583;-53
2022/12/13 09:40:36;;;;;;;67.57;24.42;;;;;;;;;;4956070;28;20327;-53
2022/12/13 09:43:01;;;;;;;67.03;24.48;;;;;;;;;;4974723;28;20628;-55
2022/12/13 09:45:26;;;;;;;59.90;21.85;;;;;;;;;;4974376;28;20049;-55
2022/12/13 09:47:51;;;;;;;65.38;24.67;;;;;;;;;;4958529;28;20022;-55
2022/12/13 09:50:24;;;;;;;54.63;21.30;;;;;;;;;;4970459;28;20018;-54
2022/12/13 09:52:50;;;;;;;50.45;21.25;;;;;;;;;;4958512;28;20054;-55
2022/12/13 09:55:22;;;;;;;50.03;21.45;;;;;;;;;;4964638;28;20472;-55
2022/12/13 09:57:47;;;;;;;55.40;21.88;;;;;;;;;;4953783;28;20563;-54
2022/12/13 10:00:13;;;;;;;49.80;21.15;;;;;;;;;;4972085;28;20034;-53
2022/12/13 10:02:44;;;;;;;74.38;26.95;;;;;;;;;;4975630;28;20031;-51
2022/12/13 10:05:20;;;;;;;59.05;23.23;;;;;;;;;;4985681;28;20071;-54
2022/12/13 10:07:45;;;;;;;55.67;22.48;;;;;;;;;;4978224;28;20021;-55
2022/12/13 10:10:11;;;;;;;55.42;22.35;;;;;;;;;;4973385;28;20388;-55
2022/12/13 10:12:36;;;;;;;56.97;22.75;;;;;;;;;;4967206;28;20046;-54
2022/12/13 10:15:02;;;;;;;52.63;21.52;;;;;;;;;;4978579;28;20045;-54
2022/12/13 10:17:29;;;;;;;48.45;21.38;;;;;;;;;;4979126;28;20101;-54
2022/12/13 10:19:54;;;;;;;46.17;20.63;;;;;;;;;;4968848;28;20471;-54
2022/12/13 10:22:21;;;;;;;40.15;18.52;;;;;;;;;;4974623;28;20200;-55
2022/12/13 10:24:46;;;;;;;46.80;19.13;;;;;;;;;;4957466;28;20050;-55
2022/12/13 10:27:26;;;;;;;48.05;20.83;;;;;;;;;;4953319;28;20018;-55
2022/12/13 10:30:02;;;;;;;43.78;19.83;;;;;;;;;;4954743;28;20028;-55
2022/12/13 10:32:27;;;;;;;41.97;19.75;;;;;;;;;;4956684;28;20018;-54
2022/12/13 10:34:55;;;;;;;44.38;17.98;;;;;;;;;;4959067;28;20083;-55
2022/12/13 10:37:27;;;;;;;43.67;20.48;;;;;;;;;;4965035;28;20025;-55
2022/12/13 10:39:53;;;;;;;49.40;21.30;;;;;;;;;;4970548;28;20045;-55
2022/12/13 10:42:19;;;;;;;42.08;19.60;;;;;;;;;;4965665;28;20408;-53
2022/12/13 10:44:44;;;;;;;51.28;22.35;;;;;;;;;;4964759;28;20030;-56
2022/12/13 10:47:09;;;;;;;45.67;21.02;;;;;;;;;;4962083;28;20479;-54
2022/12/13 10:49:39;;;;;;;45.55;18.70;;;;;;;;;;4966493;28;20140;-56
2022/12/13 10:52:04;;;;;;;45.30;20.48;;;;;;;;;;4964481;28;20032;-55
2022/12/13 10:54:30;;;;;;;44.40;20.42;;;;;;;;;;4968282;28;20084;-55
2022/12/13 10:56:59;;;;;;;47.65;21.10;;;;;;;;;;4980204;28;20463;-54
2022/12/13 10:59:24;;;;;;;46.35;21.17;;;;;;;;;;4967962;28;20121;-54
2022/12/13 11:01:49;;;;;;;54.33;22.38;;;;;;;;;;4969714;28;20477;-55
2022/12/13 11:04:26;;;;;;;43.80;20.13;;;;;;;;;;4967831;28;20500;-55
2022/12/13 11:06:52;;;;;;;47.35;20.95;;;;;;;;;;4952916;28;20047;-53
2022/12/13 11:09:24;;;;;;;44.10;19.13;;;;;;;;;;4960687;28;20170;-54
2022/12/13 11:11:50;;;;;;;50.97;20.08;;;;;;;;;;4960732;28;20627;-55
2022/12/13 11:14:16;;;;;;;42.80;19.38;;;;;;;;;;4951777;28;20405;-56
2022/12/13 11:16:41;;;;;;;44.38;20.60;;;;;;;;;;4956127;28;20493;-55
2022/12/13 11:19:17;;;;;;;46.47;20.38;;;;;;;;;;4955422;28;20035;-55
2022/12/13 11:21:45;;;;;;;44.63;19.65;;;;;;;;;;4959925;28;20038;-55
2022/12/13 11:24:14;;;;;;;52.97;21.05;;;;;;;;;;4967401;28;20412;-55
2022/12/13 11:26:41;;;;;;;44.00;16.95;;;;;;;;;;4962030;28;20027;-55
2022/12/13 11:29:06;;;;;;;50.25;21.30;;;;;;;;;;4961192;28;20023;-55
2022/12/13 11:31:42;;;;;;;51.67;21.25;;;;;;;;;;4954896;28;20027;-55
2022/12/13 11:34:23;;;;;;;50.97;21.70;;;;;;;;;;4970876;28;20157;-53
2022/12/13 11:36:48;;;;;;;;;;;;;;;;;;4961567;28;20344;-56
2022/12/13 11:39:13;;;;;;;47.80;19.75;;;;;;;;;;4958652;28;19957;-55
2022/12/13 11:41:42;;;;;;;38.33;14.98;;;;;;;;;;4959002;28;20023;-51
2022/12/13 11:44:11;;;;;;;42.78;14.82;;;;;;;;;;4958600;28;20555;-55
2022/12/13 11:46:37;;;;;;;54.90;20.57;;;;;;;;;;4955229;28;20179;-54
2022/12/13 11:49:03;;;;;;;55.08;18.65;;;;;;;;;;4958567;28;20046;-54
2022/12/13 11:51:42;;;;;;;49.03;18.80;;;;;;;;;;4960410;28;20251;-54
2022/12/13 11:54:28;;;;;;;42.67;17.05;;;;;;;;;;4970187;28;20062;-55
2022/12/13 11:56:55;;;;;;;60.95;20.08;;;;;;;;;;4968101;28;20682;-55
2022/12/13 11:59:26;;;;;;;56.55;21.73;;;;;;;;;;4962379;28;20038;-55
2022/12/13 12:01:58;;;;;;;74.18;21.98;;;;;;;;;;4967747;28;20030;-54
2022/12/13 12:04:38;;;;;;;58.13;19.45;;;;;;;;;;4970524;28;20034;-55
2022/12/13 12:07:06;;;;;;;48.80;17.83;;;;;;;;;;4964505;28;20312;-54
2022/12/13 12:09:31;;;;;;;49.63;18.20;;;;;;;;;;4958315;28;20031;-55
2022/12/13 12:12:07;;;;;;;57.70;16.52;;;;;;;;;;4961463;28;20088;-54
2022/12/13 12:14:52;;;;;;;53.35;18.65;;;;;;;;;;4971434;28;20035;-55
2022/12/13 12:17:19;;;;;;;58.10;18.63;;;;;;;;;;4948876;28;20062;-55
2022/12/13 12:19:45;;;;;;;48.50;16.25;;;;;;;;;;4959493;28;20035;-55
2022/12/13 12:22:21;;;;;;;69.03;24.13;;;;;;;;;;4961120;28;20030;-55
2022/12/13 12:24:47;;;;;;;81.65;24.35;;;;;;;;;;4983555;28;20124;-52
2022/12/13 12:27:12;;;;;;;79.47;24.95;;;;;;;;;;4987010;28;20409;-54
2022/12/13 12:29:46;;;;;;;75.97;23.95;;;;;;;;;;4987487;28;20034;-55
2022/12/13 12:32:18;;;;;;;84.57;26.77;;;;;;;;;;4985449;28;20440;-54
2022/12/13 12:34:44;;;;;;;75.47;23.20;;;;;;;;;;4971207;28;20045;-54
2022/12/13 12:37:09;;;;;;;77.20;24.38;;;;;;;;;;4987552;28;21416;-55
2022/12/13 12:39:46;;;;;;;63.92;20.73;;;;;;;;;;4991257;28;20038;-55
2022/12/13 12:42:24;;;;;;;60.85;18.70;;;;;;;;;;4987096;28;20104;-55
2022/12/13 12:44:50;;;;;;;63.55;20.27;;;;;;;;;;4971813;28;20038;-56
2022/12/13 12:47:33;;;;;;;69.20;22.05;;;;;;;;;;4988478;28;20036;-54
2022/12/13 12:50:06;;;;;;;60.15;20.13;;;;;;;;;;4991612;28;20062;-55
2022/12/13 12:52:47;;;;;;;56.95;17.80;;;;;;;;;;4976169;28;20025;-55
2022/12/13 12:55:25;;;;;;;64.82;21.08;;;;;;;;;;4971695;28;20147;-54
2022/12/13 12:57:50;;;;;;;78.65;21.92;;;;;;;;;;4987707;28;20038;-55
2022/12/13 13:00:16;;;;;;;57.90;18.55;;;;;;;;;;4986334;28;20026;-55
2022/12/13 13:02:46;;;;;;;70.88;21.67;;;;;;;;;;4972518;28;20030;-55
2022/12/13 13:05:12;;;;;;;69.07;21.40;;;;;;;;;;4969794;28;20030;-56
2022/12/13 13:07:38;;;;;;;57.05;19.63;;;;;;;;;;4966249;28;20035;-55
2022/12/13 13:10:04;;;;;;;64.28;21.70;;;;;;;;;;4960512;28;20026;-55
2022/12/13 13:12:29;;;;;;;83.43;22.77;;;;;;;;;;4973534;28;20026;-55
2022/12/13 13:14:55;;;;;;;76.35;24.45;;;;;;;;;;4966079;28;20148;-55
2022/12/13 13:17:23;;;;;;;81.95;25.25;;;;;;;;;;4961242;28;20113;-54
2022/12/13 13:20:07;;;;;;;53.95;18.80;;;;;;;;;;4986433;28;20068;-55
2022/12/13 13:22:33;;;;;;;60.13;20.05;;;;;;;;;;4984138;28;20481;-55
2022/12/13 13:25:07;;;;;;;53.42;17.77;;;;;;;;;;4989241;28;20039;-56
2022/12/13 13:27:38;;;;;;;54.20;19.60;;;;;;;;;;4985986;28;20038;-54
2022/12/13 13:30:05;;;;;;;55.10;20.33;;;;;;;;;;4981608;28;20023;-57
2022/12/13 13:32:30;;;;;;;59.17;19.27;;;;;;;;;;4974068;28;20029;-54
2022/12/13 13:35:15;;;;;;;47.05;17.17;;;;;;;;;;4972035;28;20027;-55
2022/12/13 13:37:47;;;;;;;47.38;16.95;;;;;;;;;;4980430;28;20030;-54
2022/12/13 13:40:12;;;;;;;50.90;19.13;;;;;;;;;;4974746;28;20061;-57
2022/12/13 13:42:56;;;;;;;51.90;16.70;;;;;;;;;;4978099;28;20062;-55
2022/12/13 13:45:22;;;;;;;48.75;16.88;;;;;;;;;;4975413;28;20180;-55
2022/12/13 13:48:01;;;;;;;42.22;15.80;;;;;;;;;;4969634;28;20105;-55
2022/12/13 13:50:47;;;;;;;50.00;16.55;;;;;;;;;;4962498;28;20425;-56
2022/12/13 13:53:30;;;;;;;51.55;17.00;;;;;;;;;;4959566;28;20030;-54
2022/12/13 13:56:02;;;;;;;43.95;15.40;;;;;;;;;;4958219;28;20035;-56
2022/12/13 13:58:30;;;;;;;58.22;17.45;;;;;;;;;;4954814;28;20034;-56
2022/12/13 14:01:14;;;;;;;61.00;19.88;;;;;;;;;;4973449;28;20039;-55
2022/12/13 14:04:18;;;;;;;53.67;18.92;;;;;;;;;;4974815;28;20050;-55
2022/12/13 14:06:46;;;;;;;53.78;19.00;;;;;;;;;;4908589;29;20549;-54
2022/12/13 14:09:17;;;;;;;42.97;16.42;;;;;;;;;;4915320;29;20035;-55
2022/12/13 14:12:01;;;;;;;42.70;13.60;;;;;;;;;;4941620;28;20039;-55
2022/12/13 14:14:32;;;;;;;42.55;16.17;;;;;;;;;;4972048;28;20026;-55
2022/12/13 14:17:00;;;;;;;45.83;14.98;;;;;;;;;;4979006;28;20034;-55
2022/12/13 14:19:46;;;;;;;37.22;14.80;;;;;;;;;;4976328;28;20773;-54